Howard City, MI

11:11 AM EDT on August 28, 2016 (GMT -0400)
Smits Residence | | Change Station

Elev 925 ft 43.40 °N, 85.40 °W | Updated 10 minutes ago

Overcast
Overcast
69.6 °F
Feels Like 69.6 °F
N
4.7
Wind Variable Wind from North

Today
High -- | Low -- °F
--% Chance of Precip.
Yesterday
High -- | Low -- °F
Precip. -- in
Pressure 30.22 in
Visibility 10.0 miles
Clouds Overcast 1500 ft
Dew Point 66 °F
Humidity 88%
Rainfall 0.00 in
Snow Depth Not available.
7:01 AM 8:23 PM
Waning Crescent, 15% visible
METAR KRQB 281455Z AUTO 34005KT 10SM OVC015 21/19 A3022 RMK AO2 T02100186
Pressure 30.22 in
Visibility 10.0 miles
Clouds Overcast 1500 ft
Dew Point 66 °F
Humidity 88%
Rainfall 0.00 in
Snow Depth Not available.
7:01 AM 8:23 PM
Waning Crescent, 15% visible
METAR KRQB 281455Z AUTO 34005KT 10SM OVC015 21/19 A3022 RMK AO2 T02100186

10-Day Weather Forecast

Almanac

Astronomy

Aug. 28, 2016 Rise Set
Actual Time
Civil Twilight
Nautical Twilight
Astronomical Twilight
Moon
Length of Visible Light
Length of Day
Tomorrow will be .
, % of the Moon is Illuminated

Today's Extremes

State Highs State Lows

Community

WunderPhotos

Upload Photos

1,935,586 photos uploaded!

WunderBlog® & News

Nearby

Air Quality

  Air Quality AQ Index Pollutant
Not available.

Snow Depth

Station Depth Elevation

Earthquake Activity

City Distance Mag. Time & Date
Minimum magnitude displayed is 2.5.

Coastal Water Temperatures

Place Temperature

Stations

Nearby Weather Stations

Station Location Temp. Windchill Dew Point Humidity Wind Precip. Elev Updated Type
                   

Watches & Warnings

There are currently no watches in effect.